createdAt,value
2022-12-25T00:02:11.628Z,23.67
2022-12-25T00:04:38.003Z,16.45
2022-12-25T00:07:04.387Z,13.80
2022-12-25T00:09:30.817Z,12.80
2022-12-25T00:11:57.199Z,16.80
2022-12-25T00:14:23.597Z,14.35
2022-12-25T00:16:49.972Z,16.77
2022-12-25T00:19:16.378Z,14.60
2022-12-25T00:21:42.714Z,11.68
2022-12-25T00:24:09.380Z,14.75
2022-12-25T00:26:35.736Z,11.10
2022-12-25T00:29:02.066Z,11.38
2022-12-25T00:31:28.470Z,12.55
2022-12-25T00:33:54.899Z,12.88
2022-12-25T00:36:22.103Z,13.63
2022-12-25T00:38:49.659Z,16.08
2022-12-25T00:41:43.270Z,19.15
2022-12-25T00:44:10.823Z,10.70
2022-12-25T00:46:37.333Z,16.63
2022-12-25T00:49:03.814Z,15.52
2022-12-25T00:51:30.169Z,15.77
2022-12-25T00:53:56.710Z,20.98
2022-12-25T00:56:23.140Z,15.23
2022-12-25T00:58:49.600Z,20.33
2022-12-25T01:01:16.059Z,19.42
2022-12-25T01:03:42.560Z,10.98
2022-12-25T01:06:10.937Z,19.42
2022-12-25T01:08:38.393Z,14.82
2022-12-25T01:11:06.691Z,19.10
2022-12-25T01:13:34.956Z,21.17
2022-12-25T01:16:11.370Z,20.70
2022-12-25T01:18:38.506Z,17.35
2022-12-25T01:21:11.825Z,20.60
2022-12-25T01:23:38.281Z,22.92
2022-12-25T01:26:09.122Z,21.35
2022-12-25T01:28:35.776Z,16.73
2022-12-25T01:31:02.549Z,15.63
2022-12-25T01:33:29.175Z,24.20
2022-12-25T01:35:55.557Z,19.55
2022-12-25T01:38:22.009Z,17.17
2022-12-25T01:40:48.345Z,18.95
2022-12-25T01:43:18.780Z,27.05
2022-12-25T01:45:46.587Z,17.05
2022-12-25T01:48:14.576Z,20.85
2022-12-25T01:50:43.204Z,23.80
2022-12-25T01:53:09.775Z,23.45
2022-12-25T01:55:36.711Z,28.15
2022-12-25T01:58:03.347Z,23.48
2022-12-25T02:00:29.780Z,24.08
2022-12-25T02:02:56.388Z,18.92
2022-12-25T02:05:24.976Z,19.42
2022-12-25T02:07:51.498Z,24.08
2022-12-25T02:10:18.363Z,20.65
2022-12-25T02:12:45.189Z,20.42
2022-12-25T02:15:16.884Z,19.48
2022-12-25T02:17:49.739Z,21.13
2022-12-25T02:20:28.244Z,21.42
2022-12-25T02:23:13.654Z,19.38
2022-12-25T02:25:40.055Z,20.65
2022-12-25T02:28:10.415Z,18.52
2022-12-25T02:30:49.970Z,18.25
2022-12-25T02:33:43.151Z,24.23
2022-12-25T02:36:14.133Z,18.88
2022-12-25T02:39:04.390Z,18.83
2022-12-25T02:41:32.459Z,19.00
2022-12-25T02:44:19.148Z,15.80
2022-12-25T02:47:03.923Z,23.40
2022-12-25T02:49:49.748Z,20.67
2022-12-25T02:52:37.692Z,18.48
2022-12-25T02:55:27.533Z,26.75
2022-12-25T02:58:14.889Z,24.85
2022-12-25T03:01:01.799Z,21.83
2022-12-25T03:03:49.366Z,19.63
2022-12-25T03:09:22.752Z,18.75
2022-12-25T03:11:53.907Z,21.27
2022-12-25T03:14:39.023Z,20.38
2022-12-25T03:17:05.515Z,21.67
2022-12-25T03:19:51.633Z,25.10
2022-12-25T03:22:47.091Z,17.30
2022-12-25T03:25:32.415Z,27.50
2022-12-25T03:27:59.287Z,22.38
2022-12-25T03:30:50.875Z,19.52
2022-12-25T03:33:44.609Z,22.48
2022-12-25T03:36:18.903Z,23.02
2022-12-25T03:38:47.954Z,18.40
2022-12-25T03:41:33.094Z,20.85
2022-12-25T03:44:23.913Z,21.90
2022-12-25T03:47:15.246Z,29.67
2022-12-25T03:50:05.122Z,23.17
2022-12-25T03:52:50.474Z,28.48
2022-12-25T03:55:36.788Z,25.85
2022-12-25T03:58:22.168Z,26.83
2022-12-25T04:01:07.111Z,25.10
2022-12-25T04:03:52.306Z,19.83
2022-12-25T04:06:37.194Z,22.88
2022-12-25T04:09:22.011Z,21.15
2022-12-25T04:12:06.929Z,24.63
2022-12-25T04:14:51.874Z,21.70
2022-12-25T04:17:36.745Z,26.45
2022-12-25T04:20:21.673Z,20.95
2022-12-25T04:23:06.580Z,20.80
2022-12-25T04:25:51.429Z,29.83
2022-12-25T04:28:36.170Z,24.20
2022-12-25T04:31:21.168Z,25.83
2022-12-25T04:34:06.257Z,21.67
2022-12-25T04:36:32.678Z,19.85
2022-12-25T04:38:59.028Z,31.45
2022-12-25T04:41:25.385Z,25.60
2022-12-25T04:43:51.781Z,24.17
2022-12-25T04:46:18.205Z,29.50
2022-12-25T04:48:44.690Z,27.40
2022-12-25T04:51:15.324Z,24.88
2022-12-25T04:53:42.080Z,28.70
2022-12-25T04:56:08.784Z,26.60
2022-12-25T04:58:35.188Z,23.00
2022-12-25T05:01:02.111Z,26.73
2022-12-25T05:03:28.935Z,25.42
2022-12-25T05:05:55.399Z,23.88
2022-12-25T05:08:21.818Z,21.77
2022-12-25T05:10:48.576Z,25.13
2022-12-25T05:13:15.218Z,28.85
2022-12-25T05:15:42.258Z,20.85
2022-12-25T05:18:08.738Z,23.57
2022-12-25T05:20:39.964Z,28.02
2022-12-25T05:23:06.900Z,23.17
2022-12-25T05:25:33.301Z,29.70
2022-12-25T05:27:59.694Z,23.70
2022-12-25T05:30:26.068Z,20.50
2022-12-25T05:32:52.460Z,29.38
2022-12-25T05:35:18.817Z,25.20
2022-12-25T05:37:45.193Z,22.90
2022-12-25T05:40:11.736Z,25.50
2022-12-25T05:42:38.147Z,25.00
2022-12-25T05:45:04.797Z,21.48
2022-12-25T05:47:31.172Z,20.42
2022-12-25T05:49:57.523Z,19.52
2022-12-25T05:52:23.907Z,25.92
2022-12-25T05:54:50.269Z,20.17
2022-12-25T05:57:16.663Z,26.42
2022-12-25T05:59:43.059Z,27.75
2022-12-25T06:02:09.488Z,20.58
2022-12-25T06:04:35.946Z,22.17
2022-12-25T06:07:02.332Z,24.20
2022-12-25T06:09:28.710Z,28.23
2022-12-25T06:11:55.105Z,26.70
2022-12-25T06:14:21.475Z,21.48
2022-12-25T06:16:50.781Z,20.63
2022-12-25T06:19:17.207Z,15.85
2022-12-25T06:21:43.565Z,16.58
2022-12-25T06:24:10.907Z,25.98
2022-12-25T06:26:38.833Z,24.67
2022-12-25T06:29:05.203Z,26.92
2022-12-25T06:31:31.879Z,22.30
2022-12-25T06:33:58.301Z,29.02
2022-12-25T06:36:26.029Z,21.42
2022-12-25T06:38:53.112Z,18.55
2022-12-25T06:41:21.657Z,15.90
2022-12-25T06:43:49.222Z,19.80
2022-12-25T06:46:15.743Z,21.80
2022-12-25T06:48:47.978Z,20.60
2022-12-25T06:51:14.391Z,19.58
2022-12-25T06:53:41.029Z,17.17
2022-12-25T06:56:18.222Z,23.10
2022-12-25T06:58:49.013Z,19.67
2022-12-25T07:01:19.961Z,29.55
2022-12-25T07:03:47.348Z,23.75
2022-12-25T07:06:13.797Z,22.08
2022-12-25T07:08:40.213Z,21.92
2022-12-25T07:11:06.884Z,28.10
2022-12-25T07:13:33.343Z,24.85
2022-12-25T07:16:00.824Z,17.15
2022-12-25T07:18:27.788Z,24.33
2022-12-25T07:20:55.806Z,25.55
2022-12-25T07:23:22.656Z,22.63
2022-12-25T07:25:55.799Z,22.13
2022-12-25T07:28:22.293Z,18.65
2022-12-25T07:30:48.779Z,16.80
2022-12-25T07:33:15.402Z,20.05
2022-12-25T07:35:41.806Z,16.02
2022-12-25T07:38:08.225Z,19.55
2022-12-25T07:40:34.656Z,17.80
2022-12-25T07:43:01.056Z,17.67
2022-12-25T07:45:27.489Z,21.05
2022-12-25T07:47:55.243Z,22.98
2022-12-25T07:52:48.198Z,22.38
2022-12-25T07:55:14.652Z,20.58
2022-12-25T07:57:41.045Z,28.35
2022-12-25T08:00:07.700Z,22.73
2022-12-25T08:02:34.288Z,21.33
2022-12-25T08:05:00.954Z,18.38
2022-12-25T08:07:27.399Z,24.92
2022-12-25T08:09:53.791Z,21.35
2022-12-25T08:12:20.171Z,23.42
2022-12-25T08:14:46.517Z,19.75
2022-12-25T08:17:12.986Z,22.05
2022-12-25T08:19:39.413Z,22.77
2022-12-25T08:22:05.908Z,24.23
2022-12-25T08:24:32.311Z,21.02
2022-12-25T08:26:58.720Z,23.00
2022-12-25T08:29:25.295Z,20.77
2022-12-25T08:31:51.999Z,20.90
2022-12-25T08:34:19.328Z,24.08
2022-12-25T08:36:45.831Z,18.20
2022-12-25T08:39:12.269Z,20.35
2022-12-25T08:41:38.877Z,18.42
2022-12-25T08:44:05.531Z,15.13
2022-12-25T08:46:32.063Z,15.60
2022-12-25T08:48:58.610Z,14.88
2022-12-25T08:51:25.922Z,13.65
2022-12-25T08:53:53.468Z,9.00
2022-12-25T08:56:20.177Z,14.60
2022-12-25T08:58:46.660Z,13.60
2022-12-25T09:01:13.554Z,12.05
2022-12-25T09:03:40.189Z,17.83
2022-12-25T09:06:10.891Z,8.23
2022-12-25T09:08:42.403Z,9.63
2022-12-25T09:11:14.055Z,10.35
2022-12-25T09:16:07.934Z,8.25
2022-12-25T09:18:34.360Z,7.93
2022-12-25T09:21:01.325Z,11.35
2022-12-25T09:23:28.193Z,14.80
2022-12-25T09:25:54.693Z,17.77
2022-12-25T09:28:21.702Z,15.93
2022-12-25T09:30:51.793Z,19.05
2022-12-25T09:33:18.707Z,18.25
2022-12-25T09:35:52.389Z,21.05
2022-12-25T09:38:18.766Z,16.73
2022-12-25T09:40:45.132Z,21.40
2022-12-25T09:43:15.818Z,19.10
2022-12-25T09:45:42.850Z,16.08
2022-12-25T09:48:12.212Z,12.73
2022-12-25T09:50:44.974Z,27.65
2022-12-25T09:53:20.687Z,24.65
2022-12-25T09:55:57.130Z,18.90
2022-12-25T09:58:23.657Z,17.65
2022-12-25T10:00:54.588Z,16.15
2022-12-25T10:03:24.043Z,28.95
2022-12-25T10:06:09.260Z,18.33
2022-12-25T10:08:43.373Z,18.33
2022-12-25T10:11:21.789Z,17.48
2022-12-25T10:14:00.327Z,21.02
2022-12-25T10:16:26.750Z,20.50
2022-12-25T10:18:57.816Z,14.30
2022-12-25T10:21:24.270Z,20.95
2022-12-25T10:24:10.875Z,16.30
2022-12-25T10:26:37.451Z,12.90
2022-12-25T10:29:03.835Z,16.60
2022-12-25T10:31:30.863Z,16.30
2022-12-25T10:33:58.021Z,14.73
2022-12-25T10:36:25.959Z,17.55
2022-12-25T10:38:52.447Z,16.42
2022-12-25T10:41:21.664Z,21.88
2022-12-25T10:43:52.788Z,16.85
2022-12-25T10:46:20.053Z,11.80
2022-12-25T10:48:51.297Z,18.88
2022-12-25T10:51:34.577Z,15.85
2022-12-25T10:54:02.068Z,13.88
2022-12-25T10:56:28.687Z,14.20
2022-12-25T10:59:05.246Z,10.25
2022-12-25T11:01:31.889Z,16.50
2022-12-25T11:03:58.656Z,9.25
2022-12-25T11:06:26.386Z,13.18
2022-12-25T11:08:57.274Z,13.15
2022-12-25T11:11:24.083Z,14.60
2022-12-25T11:14:01.475Z,12.18
2022-12-25T11:16:40.791Z,15.88
2022-12-25T11:19:22.603Z,15.13
2022-12-25T11:21:53.019Z,10.48
2022-12-25T11:24:20.968Z,9.35
2022-12-25T11:26:48.938Z,12.77
2022-12-25T11:29:30.348Z,13.02
2022-12-25T11:31:58.692Z,9.05
2022-12-25T11:34:25.051Z,9.45
2022-12-25T11:36:52.255Z,13.73
2022-12-25T11:39:24.562Z,10.15
2022-12-25T11:41:53.347Z,10.13
2022-12-25T11:44:32.750Z,11.25
2022-12-25T11:47:03.531Z,10.85
2022-12-25T11:49:30.614Z,14.25
2022-12-25T11:51:57.746Z,11.13
2022-12-25T11:54:24.135Z,11.52
2022-12-25T11:56:50.983Z,12.75
2022-12-25T11:59:33.023Z,10.18
2022-12-25T12:02:21.367Z,15.35
2022-12-25T12:04:51.018Z,11.63
2022-12-25T12:07:32.093Z,3.85
2022-12-25T12:09:58.524Z,3.42
2022-12-25T12:12:48.890Z,3.78
2022-12-25T12:15:37.602Z,5.68
2022-12-25T12:18:19.141Z,4.57
2022-12-25T12:20:45.585Z,3.47
2022-12-25T12:23:16.777Z,3.13
2022-12-25T12:25:44.439Z,3.97
2022-12-25T12:28:14.124Z,4.45
2022-12-25T12:30:40.724Z,5.28
2022-12-25T12:33:07.994Z,3.90
2022-12-25T12:35:36.685Z,3.30
2022-12-25T12:38:09.103Z,2.67
2022-12-25T12:40:38.536Z,2.88
2022-12-25T12:43:06.159Z,1.63
2022-12-25T12:45:34.666Z,1.73
2022-12-25T12:48:01.369Z,1.48
2022-12-25T12:50:27.792Z,3.15
2022-12-25T12:52:54.387Z,6.47
2022-12-25T12:55:31.140Z,12.93
2022-12-25T12:57:58.348Z,11.52
2022-12-25T13:00:25.199Z,11.38
2022-12-25T13:02:54.871Z,5.07
2022-12-25T13:05:34.688Z,3.45
2022-12-25T13:08:01.426Z,13.60
2022-12-25T13:10:39.281Z,4.47
2022-12-25T13:13:21.749Z,2.13
2022-12-25T13:15:49.827Z,2.65
2022-12-25T13:18:16.503Z,2.60
2022-12-25T13:21:00.869Z,2.40
2022-12-25T13:23:29.082Z,5.00
2022-12-25T13:25:56.694Z,2.35
2022-12-25T13:28:30.213Z,4.30
2022-12-25T13:31:07.176Z,5.63
2022-12-25T13:33:34.128Z,2.63
2022-12-25T13:36:00.725Z,2.50
2022-12-25T13:38:28.150Z,3.00
2022-12-25T13:41:14.232Z,3.08
2022-12-25T13:43:42.155Z,1.15
2022-12-25T13:48:35.198Z,2.47
2022-12-25T13:51:02.012Z,1.27
2022-12-25T13:53:28.481Z,1.60
2022-12-25T13:55:55.869Z,4.13
2022-12-25T13:58:27.268Z,2.75
2022-12-25T14:00:55.855Z,3.05
2022-12-25T14:03:23.937Z,3.90
2022-12-25T14:05:57.200Z,2.22
2022-12-25T14:08:25.533Z,4.68
2022-12-25T14:10:52.505Z,2.72
2022-12-25T14:13:21.047Z,3.40
2022-12-25T14:15:51.017Z,3.65
2022-12-25T14:18:18.227Z,4.47
2022-12-25T14:21:04.874Z,4.93
2022-12-25T14:23:39.385Z,4.93
2022-12-25T14:26:05.970Z,3.45
2022-12-25T14:28:34.219Z,3.75
2022-12-25T14:31:01.811Z,2.97
2022-12-25T14:33:31.222Z,5.95
2022-12-25T14:35:58.938Z,4.30
2022-12-25T14:38:29.435Z,3.45
2022-12-25T14:40:59.511Z,3.97
2022-12-25T14:43:27.287Z,6.85
2022-12-25T14:45:57.569Z,8.38
2022-12-25T14:48:31.149Z,7.28
2022-12-25T14:51:00.647Z,7.78
2022-12-25T14:53:36.228Z,6.78
2022-12-25T14:56:03.029Z,8.65
2022-12-25T14:58:31.221Z,5.35
2022-12-25T15:00:58.656Z,4.22
2022-12-25T15:03:45.432Z,5.22
2022-12-25T15:06:19.552Z,6.25
2022-12-25T15:09:15.399Z,8.35
2022-12-25T15:11:41.933Z,5.05
2022-12-25T15:14:08.319Z,6.32
2022-12-25T15:16:39.894Z,7.35
2022-12-25T15:19:07.186Z,7.22
2022-12-25T15:21:34.299Z,5.28
2022-12-25T15:24:00.829Z,5.95
2022-12-25T15:26:28.721Z,6.20
2022-12-25T15:31:28.999Z,5.15
2022-12-25T15:33:56.380Z,5.28
2022-12-25T15:36:23.566Z,7.15
2022-12-25T15:38:50.606Z,9.07
2022-12-25T15:41:41.361Z,7.20
2022-12-25T15:44:07.814Z,8.00
2022-12-25T15:46:34.690Z,9.75
2022-12-25T15:49:01.259Z,8.23
2022-12-25T15:51:27.652Z,9.27
2022-12-25T15:53:54.024Z,10.45
2022-12-25T15:56:20.980Z,11.10
2022-12-25T15:58:47.385Z,8.88
2022-12-25T16:01:15.434Z,8.57
2022-12-25T16:03:42.604Z,8.60
2022-12-25T16:06:12.739Z,9.73
2022-12-25T16:08:39.395Z,13.15
2022-12-25T16:11:05.962Z,11.82
2022-12-25T16:13:32.402Z,9.30
2022-12-25T16:15:58.953Z,9.93
2022-12-25T16:18:25.520Z,11.38
2022-12-25T16:20:57.861Z,16.05
2022-12-25T16:23:24.237Z,12.15
2022-12-25T16:25:50.616Z,14.10
2022-12-25T16:28:16.971Z,18.35
2022-12-25T16:30:43.497Z,10.65
2022-12-25T16:33:10.492Z,11.23
2022-12-25T16:35:36.855Z,15.15
2022-12-25T16:38:03.339Z,14.88
2022-12-25T16:40:29.656Z,17.63
2022-12-25T16:42:56.232Z,19.75
2022-12-25T16:45:22.816Z,12.15
2022-12-25T16:47:49.408Z,16.23
2022-12-25T16:50:16.399Z,14.88
2022-12-25T16:52:42.815Z,15.40
2022-12-25T16:55:09.771Z,20.00
2022-12-25T16:57:36.190Z,17.75
2022-12-25T17:00:02.670Z,20.92
2022-12-25T17:02:29.221Z,17.58
2022-12-25T17:04:55.840Z,19.60
2022-12-25T17:07:22.215Z,17.98
2022-12-25T17:09:49.209Z,20.42
2022-12-25T17:12:16.076Z,18.40
2022-12-25T17:14:42.437Z,19.60
2022-12-25T17:17:08.777Z,17.13
2022-12-25T17:19:35.119Z,15.70
2022-12-25T17:22:01.532Z,16.00
2022-12-25T17:24:28.773Z,18.88
2022-12-25T17:26:55.452Z,23.08
2022-12-25T17:29:22.880Z,19.88
2022-12-25T17:31:49.642Z,20.92
2022-12-25T17:34:16.100Z,17.33
2022-12-25T17:36:42.522Z,19.08
2022-12-25T17:39:10.333Z,15.32
2022-12-25T17:41:36.715Z,16.75
2022-12-25T17:44:03.158Z,17.70
2022-12-25T17:46:32.373Z,25.08
2022-12-25T17:48:59.546Z,15.95
2022-12-25T17:51:26.770Z,24.47
2022-12-25T17:53:54.863Z,18.17
2022-12-25T17:56:21.722Z,19.73
2022-12-25T17:58:51.809Z,19.48
2022-12-25T18:01:18.783Z,16.65
2022-12-25T18:03:46.098Z,21.63
2022-12-25T18:06:13.951Z,17.23
2022-12-25T18:08:41.073Z,11.85
2022-12-25T18:11:08.786Z,22.70
2022-12-25T18:13:35.336Z,19.00
2022-12-25T18:16:02.299Z,19.83
2022-12-25T18:18:28.974Z,19.30
2022-12-25T18:20:55.409Z,14.23
2022-12-25T18:23:21.831Z,15.90
2022-12-25T18:25:48.154Z,14.82
2022-12-25T18:28:14.511Z,16.83
2022-12-25T18:30:41.275Z,14.13
2022-12-25T18:33:07.654Z,14.02
2022-12-25T18:35:34.638Z,16.20
2022-12-25T18:38:01.002Z,10.97
2022-12-25T18:40:27.420Z,8.93
2022-12-25T18:42:59.366Z,11.23
2022-12-25T18:45:29.692Z,13.52
2022-12-25T18:47:56.178Z,8.23
2022-12-25T18:50:22.575Z,13.45
2022-12-25T18:52:51.678Z,12.27
2022-12-25T18:55:18.430Z,8.60
2022-12-25T18:57:44.813Z,10.35
2022-12-25T19:00:11.359Z,9.50
2022-12-25T19:02:37.931Z,11.55
2022-12-25T19:05:05.841Z,10.05
2022-12-25T19:07:32.269Z,11.20
2022-12-25T19:09:58.622Z,11.35
2022-12-25T19:12:25.001Z,10.63
2022-12-25T19:14:51.402Z,9.98
2022-12-25T19:17:17.776Z,10.07
2022-12-25T19:19:44.349Z,13.57
2022-12-25T19:22:10.759Z,11.80
2022-12-25T19:24:37.227Z,12.40
2022-12-25T19:27:04.032Z,9.05
2022-12-25T19:29:30.592Z,10.80
2022-12-25T19:31:57.178Z,15.43
2022-12-25T19:34:23.751Z,9.98
2022-12-25T19:36:50.324Z,15.45
2022-12-25T19:39:16.912Z,12.35
2022-12-25T19:41:44.435Z,12.65
2022-12-25T19:44:10.826Z,10.45
2022-12-25T19:46:38.795Z,14.95
2022-12-25T19:51:38.989Z,13.98
2022-12-25T19:54:05.990Z,12.70
2022-12-25T19:56:33.348Z,13.53
2022-12-25T19:59:00.124Z,14.88
2022-12-25T20:01:27.233Z,12.95
2022-12-25T20:03:53.780Z,17.50
2022-12-25T20:06:25.908Z,15.80
2022-12-25T20:08:53.595Z,15.38
2022-12-25T20:11:20.900Z,15.70
2022-12-25T20:13:47.349Z,12.57
2022-12-25T20:16:13.801Z,9.02
2022-12-25T20:18:40.326Z,8.73
2022-12-25T20:21:16.669Z,14.60
2022-12-25T20:23:43.323Z,15.55
2022-12-25T20:26:10.449Z,10.63
2022-12-25T20:28:37.143Z,15.20
2022-12-25T20:31:07.348Z,11.40
2022-12-25T20:33:34.124Z,11.90
2022-12-25T20:36:01.804Z,12.18
2022-12-25T20:38:28.527Z,11.90
2022-12-25T20:41:25.624Z,9.70
2022-12-25T20:43:45.916Z,15.68
2022-12-25T20:46:13.162Z,13.23
2022-12-25T20:48:39.720Z,11.18
2022-12-25T20:51:07.191Z,12.23
2022-12-25T20:53:33.513Z,11.45
2022-12-25T20:56:01.359Z,13.00
2022-12-25T20:58:28.078Z,8.60
2022-12-25T21:00:54.642Z,10.60
2022-12-25T21:03:21.157Z,13.10
2022-12-25T21:05:53.974Z,12.40
2022-12-25T21:08:22.468Z,15.35
2022-12-25T21:10:52.223Z,11.32
2022-12-25T21:13:22.417Z,11.40
2022-12-25T21:15:49.537Z,12.80
2022-12-25T21:18:16.708Z,12.77
2022-12-25T21:20:50.677Z,17.98
2022-12-25T21:23:17.699Z,17.10
2022-12-25T21:25:44.538Z,8.83
2022-12-25T21:28:11.190Z,11.55
2022-12-25T21:30:37.772Z,13.00
2022-12-25T21:33:22.943Z,16.20
2022-12-25T21:35:49.443Z,15.10
2022-12-25T21:38:16.118Z,12.68
2022-12-25T21:40:42.991Z,14.50
2022-12-25T21:43:11.619Z,18.10
2022-12-25T21:45:38.000Z,13.63
2022-12-25T21:48:04.587Z,16.70
2022-12-25T21:50:49.714Z,15.45
2022-12-25T21:53:17.124Z,20.35
2022-12-25T21:55:43.571Z,14.10
2022-12-25T21:58:10.116Z,14.20
2022-12-25T22:00:36.471Z,13.38
2022-12-25T22:03:03.090Z,17.65
2022-12-25T22:05:48.118Z,13.52
2022-12-25T22:08:14.561Z,20.33
2022-12-25T22:10:40.892Z,13.43
2022-12-25T22:13:27.320Z,17.05
2022-12-25T22:16:12.566Z,16.15
2022-12-25T22:18:57.428Z,17.55
2022-12-25T22:21:23.765Z,14.77
2022-12-25T22:23:50.255Z,11.55
2022-12-25T22:26:20.839Z,19.55
2022-12-25T22:28:47.500Z,13.63
2022-12-25T22:31:14.276Z,14.90
2022-12-25T22:33:40.887Z,15.30
2022-12-25T22:36:07.801Z,18.88
2022-12-25T22:38:34.239Z,16.40
2022-12-25T22:41:07.066Z,12.95
2022-12-25T22:44:06.776Z,11.95
2022-12-25T22:46:19.834Z,11.48
2022-12-25T22:48:46.214Z,12.23
2022-12-25T22:51:12.880Z,9.70
2022-12-25T22:53:39.217Z,15.25
2022-12-25T22:56:07.792Z,14.93
2022-12-25T22:58:34.127Z,13.45
2022-12-25T23:01:00.752Z,11.38
2022-12-25T23:03:27.142Z,14.57
2022-12-25T23:05:56.734Z,10.48
2022-12-25T23:08:23.663Z,12.68
2022-12-25T23:10:50.042Z,15.15
2022-12-25T23:13:35.927Z,11.05
2022-12-25T23:16:02.576Z,15.35
2022-12-25T23:18:47.624Z,9.82
2022-12-25T23:21:33.609Z,10.68
2022-12-25T23:24:18.457Z,16.00
2022-12-25T23:26:44.818Z,13.80
2022-12-25T23:29:29.565Z,13.27
2022-12-25T23:31:57.084Z,10.68
2022-12-25T23:34:23.545Z,12.32
2022-12-25T23:36:49.919Z,15.57
2022-12-25T23:39:16.276Z,12.43
2022-12-25T23:41:43.362Z,10.25
2022-12-25T23:44:10.350Z,14.67
2022-12-25T23:46:36.880Z,13.55
2022-12-25T23:49:03.318Z,15.57
2022-12-25T23:51:29.624Z,13.43
2022-12-25T23:53:55.950Z,16.73
2022-12-25T23:56:22.331Z,12.98
2022-12-25T23:58:51.923Z,12.60
